Time;durP1;ratioP1;P1;durP2;ratioP2;P2;SDS_P1;SDS_P2;PMS_P1;PMS_P2;Temp;Humidity;BMP_temperature;BMP_pressure;BME280_temperature;BME280_humidity;BME280_pressure;Samples;Min_cycle;Max_cycle;Signal;HPM_P1;HPM_P2
2022/07/28 00:01:16;;;;;;;2.35;1.30;;;21.00;53.80;;;;;;5015906;28;20061;-72
2022/07/28 00:03:44;;;;;;;2.28;1.30;;;20.90;53.70;;;;;;5015069;28;20083;-72
2022/07/28 00:06:11;;;;;;;3.55;1.10;;;20.90;53.70;;;;;;5015528;28;20057;-72
2022/07/28 00:08:38;;;;;;;2.15;1.20;;;20.90;58.50;;;;;;5015687;28;20103;-72
2022/07/28 00:11:05;;;;;;;2.17;1.27;;;20.80;53.70;;;;;;5015544;28;20057;-72
2022/07/28 00:13:32;;;;;;;1.92;1.30;;;20.80;58.20;;;;;;5015627;28;20504;-72
2022/07/28 00:15:58;;;;;;;1.80;1.10;;;19.90;59.10;;;;;;5015391;28;20053;-72
2022/07/28 00:18:26;;;;;;;2.95;1.25;;;20.80;53.70;;;;;;5015630;28;20061;-72
2022/07/28 00:20:53;;;;;;;3.53;1.15;;;20.90;59.50;;;;;;5015481;28;20132;-72
2022/07/28 00:23:20;;;;;;;2.30;1.10;;;20.80;58.10;;;;;;5015635;28;20053;-72
2022/07/28 00:25:47;;;;;;;1.67;1.23;;;20.70;59.70;;;;;;5015536;28;20076;-72
2022/07/28 00:28:13;;;;;;;1.15;0.95;;;20.80;53.70;;;;;;5015267;28;20053;-72
2022/07/28 00:30:40;;;;;;;1.83;1.10;;;20.80;60.00;;;;;;5015500;28;20512;-72
2022/07/28 00:33:07;;;;;;;2.75;1.20;;;19.80;58.70;;;;;;5014979;28;20049;-72
2022/07/28 00:35:35;;;;;;;1.85;1.10;;;20.80;53.70;;;;;;5015110;28;20045;-72
2022/07/28 00:38:01;;;;;;;1.90;1.30;;;20.80;53.70;;;;;;5015210;28;20063;-72
2022/07/28 00:43:09;;;;;;;2.95;1.10;;;20.80;58.80;;;;;;5013783;28;20077;-72
2022/07/28 00:45:35;;;;;;;1.98;1.10;;;20.70;53.70;;;;;;5015403;28;20050;-72
2022/07/28 00:48:02;;;;;;;1.48;1.05;;;20.70;53.70;;;;;;5032398;28;20482;-72
2022/07/28 00:50:29;;;;;;;1.38;1.00;;;20.90;58.90;;;;;;5015122;28;20057;-72
2022/07/28 00:52:57;;;;;;;3.33;1.13;;;20.70;53.60;;;;;;5014904;28;20709;-72
2022/07/28 00:55:24;;;;;;;2.42;1.35;;;20.70;53.60;;;;;;5014531;28;20125;-72
2022/07/28 00:57:50;;;;;;;2.60;1.30;;;20.70;53.70;;;;;;5014865;28;20061;-72
2022/07/28 01:00:17;;;;;;;1.30;1.10;;;20.70;57.70;;;;;;5014760;28;20562;-72
2022/07/28 01:02:45;;;;;;;2.92;1.10;;;20.70;53.70;;;;;;5014681;28;20049;-72
2022/07/28 01:05:13;;;;;;;1.52;1.20;;;21.20;58.90;;;;;;5015004;28;20092;-72
2022/07/28 01:07:43;;;;;;;1.50;0.95;;;19.40;58.90;;;;;;5014693;28;20132;-72
2022/07/28 01:10:16;;;;;;;1.90;1.10;;;20.80;57.20;;;;;;5014755;28;20143;-72
2022/07/28 01:12:49;;;;;;;1.75;1.10;;;20.60;53.60;;;;;;5014768;28;20045;-72
2022/07/28 01:15:28;;;;;;;3.60;1.38;;;20.70;58.40;;;;;;5031796;28;20057;-72
2022/07/28 01:18:02;;;;;;;3.22;1.27;;;20.70;53.60;;;;;;5014765;28;20525;-72
2022/07/28 01:20:31;;;;;;;1.55;1.10;;;20.50;58.20;;;;;;5014626;28;20054;-72
2022/07/28 01:23:17;;;;;;;2.03;1.10;;;20.40;58.60;;;;;;5013842;28;20137;-72
2022/07/28 01:25:47;;;;;;;1.67;1.13;;;20.50;58.40;;;;;;5014216;28;20053;-72
2022/07/28 01:28:21;;;;;;;3.03;1.70;;;20.60;57.90;;;;;;5014067;28;20076;-72
2022/07/28 01:30:50;;;;;;;1.60;1.05;;;20.50;53.60;;;;;;5014519;28;20065;-72
2022/07/28 01:33:19;;;;;;;1.90;1.08;;;20.50;53.60;;;;;;5014211;28;20060;-72
2022/07/28 01:35:47;;;;;;;2.05;1.20;;;20.50;53.60;;;;;;5013935;28;20049;-72
2022/07/28 01:38:14;;;;;;;2.17;1.25;;;20.50;53.60;;;;;;5014392;28;20140;-72
2022/07/28 01:40:42;;;;;;;3.20;1.23;;;20.50;58.20;;;;;;5014446;28;20136;-72
2022/07/28 01:43:11;;;;;;;1.25;1.10;;;20.50;58.50;;;;;;5013872;28;20059;-72
2022/07/28 01:45:38;;;;;;;2.42;1.40;;;20.50;53.60;;;;;;5014542;28;20500;-72
2022/07/28 01:48:06;;;;;;;1.25;1.10;;;20.50;53.60;;;;;;5014025;28;20060;-72
2022/07/28 01:50:33;;;;;;;2.15;1.10;;;20.50;58.90;;;;;;5014002;28;20064;-72
2022/07/28 01:53:00;;;;;;;1.52;1.00;;;20.50;53.60;;;;;;5014275;28;20081;-72
2022/07/28 01:55:26;;;;;;;1.10;1.00;;;20.50;53.60;;;;;;5013904;28;20053;-72
2022/07/28 01:57:54;;;;;;;2.47;1.10;;;20.90;58.50;;;;;;5013817;28;20057;-72
2022/07/28 02:00:20;;;;;;;1.73;1.00;;;20.30;57.00;;;;;;5014028;28;20059;-72
2022/07/28 02:02:48;;;;;;;1.70;1.10;;;19.80;57.90;;;;;;5014129;28;20536;-72
2022/07/28 02:05:18;;;;;;;1.45;1.08;;;20.50;57.80;;;;;;5013843;28;20131;-72
2022/07/28 02:07:45;;;;;;;2.00;1.10;;;20.40;53.50;;;;;;5014154;28;20053;-72
2022/07/28 02:10:12;;;;;;;1.88;1.20;;;20.50;57.10;;;;;;5013828;28;20500;-72
2022/07/28 02:12:39;;;;;;;3.03;1.48;;;20.40;53.40;;;;;;5013761;28;20052;-72
2022/07/28 02:15:08;;;;;;;1.55;1.13;;;20.40;53.50;;;;;;5013737;28;20140;-72
2022/07/28 02:17:34;;;;;;;1.52;1.02;;;20.40;53.50;;;;;;5014179;28;20164;-72
2022/07/28 02:20:01;;;;;;;1.48;1.20;;;20.40;53.50;;;;;;5013976;28;20049;-72
2022/07/28 02:22:29;;;;;;;1.20;1.00;;;20.40;53.50;;;;;;5013468;28;20413;-72
2022/07/28 02:24:56;;;;;;;2.25;1.00;;;20.40;57.90;;;;;;5031320;28;20049;-72
2022/07/28 02:27:24;;;;;;;1.70;1.10;;;20.40;53.50;;;;;;5014463;28;20115;-72
2022/07/28 02:29:58;;;;;;;1.40;1.10;;;20.40;53.50;;;;;;5017741;28;20061;-72
2022/07/28 02:32:29;;;;;;;1.47;1.13;;;19.20;55.60;;;;;;5017829;28;20140;-72
2022/07/28 02:35:00;;;;;;;1.95;1.20;;;20.40;53.40;;;;;;5016974;28;20045;-72
2022/07/28 02:37:28;;;;;;;1.77;1.10;;;18.00;52.00;;;;;;5017799;28;20057;-72
2022/07/28 02:39:55;;;;;;;1.13;1.00;;;20.40;53.40;;;;;;5017585;28;20063;-72
2022/07/28 02:42:25;;;;;;;1.73;1.10;;;20.30;57.30;;;;;;5017283;28;20068;-72
2022/07/28 02:44:55;;;;;;;2.22;1.30;;;20.40;53.30;;;;;;5016974;28;20051;-72
2022/07/28 02:47:24;;;;;;;1.25;0.90;;;20.40;53.30;;;;;;5017073;28;20084;-72
2022/07/28 02:49:50;;;;;;;1.52;1.10;;;20.50;53.30;;;;;;5017161;28;20073;-72
2022/07/28 02:52:17;;;;;;;1.70;1.30;;;20.40;58.80;;;;;;5016887;28;20058;-72
2022/07/28 02:54:47;;;;;;;2.65;1.00;;;20.40;53.20;;;;;;5017139;28;20589;-72
2022/07/28 02:57:13;;;;;;;1.30;0.93;;;19.90;58.30;;;;;;5016745;28;20055;-73
2022/07/28 02:59:40;;;;;;;2.03;1.05;;;20.40;53.20;;;;;;5017276;28;20063;-73
2022/07/28 03:02:07;;;;;;;1.75;1.10;;;20.30;53.20;;;;;;5017057;28;20136;-73
2022/07/28 03:07:18;;;;;;;1.60;0.98;;;20.30;58.60;;;;;;5034431;28;20410;-72
2022/07/28 03:09:47;;;;;;;2.25;1.02;;;20.30;53.20;;;;;;5017167;28;20075;-72
2022/07/28 03:12:14;;;;;;;1.42;1.20;;;20.30;53.20;;;;;;5016819;28;20417;-72
2022/07/28 03:14:40;;;;;;;1.02;0.90;;;20.30;53.10;;;;;;5016669;28;20432;-72
2022/07/28 03:17:07;;;;;;;1.00;0.90;;;20.10;57.90;;;;;;5016513;28;20053;-73
2022/07/28 03:19:34;;;;;;;0.93;0.70;;;20.20;57.80;;;;;;5017102;28;20045;-73
2022/07/28 03:22:00;;;;;;;1.95;1.10;;;20.30;53.10;;;;;;5016315;28;20053;-73
2022/07/28 03:24:28;;;;;;;1.15;1.05;;;20.30;53.10;;;;;;5016544;28;20053;-73
2022/07/28 03:26:59;;;;;;;2.42;1.00;;;20.30;53.10;;;;;;5016806;28;20107;-73
2022/07/28 03:29:26;;;;;;;1.25;1.00;;;20.20;57.60;;;;;;5016804;28;20053;-73
2022/07/28 03:31:54;;;;;;;1.23;1.00;;;20.30;53.10;;;;;;5016217;28;20049;-73
2022/07/28 03:34:20;;;;;;;0.82;0.80;;;19.40;58.00;;;;;;5033706;28;20056;-73
2022/07/28 03:36:47;;;;;;;1.02;0.90;;;20.50;53.20;;;;;;5016377;28;20128;-73
2022/07/28 03:39:15;;;;;;;1.20;1.10;;;19.50;57.50;;;;;;5016263;28;20412;-73
2022/07/28 03:41:42;;;;;;;2.60;1.08;;;20.20;53.10;;;;;;5016428;28;20104;-73
2022/07/28 03:44:10;;;;;;;1.20;0.98;;;20.20;53.10;;;;;;5016048;28;20413;-73
2022/07/28 03:46:38;;;;;;;2.22;0.90;;;20.20;53.00;;;;;;5033616;28;20061;-73
2022/07/28 03:49:07;;;;;;;1.25;1.00;;;20.20;53.00;;;;;;5015916;28;20079;-73
2022/07/28 03:51:34;;;;;;;1.50;0.98;;;20.10;58.00;;;;;;5016111;28;20147;-73
2022/07/28 03:54:01;;;;;;;1.35;1.08;;;20.20;58.30;;;;;;5015634;28;20132;-72
2022/07/28 03:56:27;;;;;;;1.10;1.00;;;20.20;53.00;;;;;;5016269;28;20482;-72
2022/07/28 03:58:54;;;;;;;1.60;0.85;;;20.20;53.00;;;;;;5015802;28;20057;-72
2022/07/28 04:01:22;;;;;;;1.25;1.00;;;20.20;57.60;;;;;;5015766;28;20053;-73
2022/07/28 04:03:49;;;;;;;1.38;1.17;;;20.20;53.00;;;;;;5033272;28;20409;-73
2022/07/28 04:06:15;;;;;;;1.38;1.13;;;20.20;52.90;;;;;;5015740;28;20124;-73
2022/07/28 04:08:43;;;;;;;1.58;1.25;;;20.20;52.90;;;;;;5015465;28;20171;-72
2022/07/28 04:11:09;;;;;;;1.50;0.95;;;20.20;52.90;;;;;;5015536;28;20128;-73
2022/07/28 04:13:36;;;;;;;1.23;1.08;;;20.30;58.90;;;;;;5014836;28;20160;-73
2022/07/28 04:16:03;;;;;;;1.50;1.10;;;20.20;52.90;;;;;;5014823;28;20123;-73
2022/07/28 04:18:31;;;;;;;1.52;1.10;;;20.20;52.90;;;;;;5015632;28;20152;-73
2022/07/28 04:20:58;;;;;;;1.35;1.00;;;20.20;52.90;;;;;;5015505;28;20079;-73
2022/07/28 04:23:25;;;;;;;1.48;1.13;;;20.10;52.90;;;;;;5014842;28;20064;-73
2022/07/28 04:25:51;;;;;;;1.25;0.98;;;19.30;56.90;;;;;;5015450;28;20406;-73
2022/07/28 04:28:18;;;;;;;1.70;1.20;;;20.10;52.80;;;;;;5015399;28;20050;-73
2022/07/28 04:30:45;;;;;;;1.15;1.00;;;20.10;52.80;;;;;;5014910;28;20053;-76
2022/07/28 04:33:12;;;;;;;1.23;1.00;;;20.10;52.80;;;;;;5014975;28;20132;-76
2022/07/28 04:35:40;;;;;;;1.52;1.25;;;20.10;52.70;;;;;;5014938;28;20049;-76
2022/07/28 04:38:07;;;;;;;1.73;1.02;;;20.00;52.70;;;;;;5012537;28;20506;-76
2022/07/28 04:40:34;;;;;;;1.92;0.90;;;20.10;52.70;;;;;;5014255;28;20065;-77
2022/07/28 04:43:02;;;;;;;2.75;1.13;;;20.10;52.60;;;;;;5014963;28;20073;-77
2022/07/28 04:45:29;;;;;;;1.20;1.00;;;20.10;52.60;;;;;;5014595;28;20060;-76
2022/07/28 04:47:56;;;;;;;1.10;0.90;;;20.10;52.60;;;;;;5014741;28;20052;-77
2022/07/28 04:50:22;;;;;;;1.48;1.00;;;20.10;56.70;;;;;;5014005;28;20068;-76
2022/07/28 04:52:50;;;;;;;1.35;1.05;;;20.10;52.50;;;;;;5014663;28;20057;-75
2022/07/28 04:55:17;;;;;;;1.05;0.90;;;20.10;52.50;;;;;;5032437;28;20045;-76
2022/07/28 04:57:44;;;;;;;1.50;1.00;;;20.10;52.50;;;;;;5012057;28;20064;-76
2022/07/28 05:00:13;;;;;;;1.20;1.10;;;20.00;56.00;;;;;;5014286;28;20160;-77
2022/07/28 05:02:39;;;;;;;1.45;1.00;;;20.00;52.40;;;;;;5014613;28;20061;-74
2022/07/28 05:05:07;;;;;;;2.33;1.02;;;20.00;52.50;;;;;;5014495;28;20159;-76
2022/07/28 05:07:33;;;;;;;3.15;1.10;;;20.00;52.50;;;;;;5008922;28;20590;-75
2022/07/28 05:10:01;;;;;;;1.38;0.90;;;20.00;52.50;;;;;;5014311;28;20060;-76
2022/07/28 05:12:28;;;;;;;2.15;1.00;;;20.00;58.40;;;;;;5013231;28;20067;-76
2022/07/28 05:14:55;;;;;;;1.75;1.20;;;20.00;52.60;;;;;;5014222;28;20057;-77
2022/07/28 05:17:21;;;;;;;1.20;0.90;;;19.90;52.50;;;;;;5016000;28;20053;-77
2022/07/28 05:19:48;;;;;;;2.08;1.15;;;20.00;52.60;;;;;;5016378;28;20140;-77
2022/07/28 05:22:15;;;;;;;1.80;1.00;;;20.00;52.60;;;;;;5015863;28;20132;-77
2022/07/28 05:24:41;;;;;;;1.48;1.10;;;20.20;58.10;;;;;;5016100;28;20056;-77
2022/07/28 05:27:10;;;;;;;1.77;1.13;;;20.00;52.70;;;;;;5016052;28;20080;-77
2022/07/28 05:29:40;;;;;;;2.28;1.25;;;20.00;52.70;;;;;;5015051;28;20080;-76
2022/07/28 05:32:07;;;;;;;2.00;1.23;;;20.00;53.30;;;;;;5014244;28;20060;-75
2022/07/28 05:34:33;;;;;;;2.72;1.60;;;20.00;52.70;;;;;;5014572;28;20059;-72
2022/07/28 05:37:01;;;;;;;4.25;1.50;;;20.00;52.70;;;;;;5014481;28;20055;-71
2022/07/28 05:39:28;;;;;;;1.67;1.30;;;19.90;52.70;;;;;;5032066;28;20045;-72
2022/07/28 05:41:54;;;;;;;2.50;1.20;;;19.90;52.80;;;;;;5014268;28;20095;-71
2022/07/28 05:44:22;;;;;;;1.05;0.95;;;20.00;52.90;;;;;;5014230;28;20136;-72
2022/07/28 05:46:49;;;;;;;1.70;1.20;;;20.00;52.80;;;;;;5032060;28;20136;-71
2022/07/28 05:49:16;;;;;;;2.67;1.50;;;19.90;52.80;;;;;;5014237;28;20053;-71
2022/07/28 05:51:42;;;;;;;1.55;1.30;;;19.90;52.80;;;;;;5014302;28;20057;-74
2022/07/28 05:54:09;;;;;;;2.38;1.90;;;19.90;52.90;;;;;;5014115;28;20049;-74
2022/07/28 05:56:36;;;;;;;3.55;2.10;;;20.60;58.10;;;;;;5013985;28;20073;-72
2022/07/28 05:59:03;;;;;;;4.90;1.90;;;19.90;53.10;;;;;;5014313;28;20057;-72
2022/07/28 06:01:35;;;;;;;2.10;1.73;;;19.90;53.00;;;;;;5014793;28;20528;-72
2022/07/28 06:04:02;;;;;;;2.28;1.58;;;19.90;53.10;;;;;;5018153;28;20061;-72
2022/07/28 06:06:28;;;;;;;4.03;1.65;;;20.60;58.40;;;;;;5017716;28;20420;-71
2022/07/28 06:08:55;;;;;;;3.10;1.70;;;19.90;53.20;;;;;;5017681;28;20055;-72
2022/07/28 06:11:22;;;;;;;2.97;1.63;;;20.00;53.20;;;;;;5017993;28;20470;-72
2022/07/28 06:13:49;;;;;;;2.63;1.60;;;20.00;53.90;;;;;;5017977;28;20057;-72
2022/07/28 06:16:15;;;;;;;1.75;1.45;;;20.00;53.30;;;;;;5035833;28;20057;-72
2022/07/28 06:18:43;;;;;;;2.30;1.67;;;20.00;53.40;;;;;;5018519;28;20059;-72
2022/07/28 06:21:10;;;;;;;3.25;1.40;;;20.10;53.40;;;;;;5018815;28;20077;-72
2022/07/28 06:23:37;;;;;;;3.50;1.60;;;19.90;58.00;;;;;;5035890;28;20053;-72
2022/07/28 06:26:04;;;;;;;4.07;1.80;;;20.10;53.50;;;;;;5018729;28;20556;-72
2022/07/28 06:28:31;;;;;;;1.90;1.35;;;20.10;53.50;;;;;;5036438;28;20053;-72
2022/07/28 06:30:58;;;;;;;1.75;1.42;;;20.20;53.50;;;;;;5019099;28;20498;-72
2022/07/28 06:33:25;;;;;;;3.53;1.63;;;20.20;53.50;;;;;;5036592;28;20049;-72
2022/07/28 06:35:53;;;;;;;2.33;1.63;;;20.40;58.40;;;;;;5018809;28;20080;-72
2022/07/28 06:38:20;;;;;;;3.00;1.60;;;20.40;58.30;;;;;;5019153;28;20055;-72
2022/07/28 06:40:46;;;;;;;2.60;1.50;;;20.30;53.50;;;;;;5018575;28;20508;-72
2022/07/28 06:43:13;;;;;;;2.88;1.60;;;20.30;53.50;;;;;;5018538;28;20057;-72
2022/07/28 06:45:40;;;;;;;2.05;1.60;;;20.40;59.40;;;;;;5018734;28;20057;-72
2022/07/28 06:48:07;;;;;;;5.25;1.90;;;20.30;53.50;;;;;;5018588;28;20060;-72
2022/07/28 06:50:34;;;;;;;2.85;1.70;;;20.40;58.40;;;;;;5018177;28;20136;-72
2022/07/28 06:53:02;;;;;;;3.08;1.65;;;20.40;53.60;;;;;;5018471;28;20061;-72
2022/07/28 06:55:28;;;;;;;2.50;1.60;;;20.30;53.50;;;;;;5035511;28;20076;-72
2022/07/28 06:57:57;;;;;;;2.30;1.30;;;20.40;53.60;;;;;;5018236;28;20084;-72
2022/07/28 07:00:24;;;;;;;2.38;1.50;;;20.30;57.90;;;;;;5019249;28;20133;-72
2022/07/28 07:02:51;;;;;;;3.80;1.42;;;20.40;53.60;;;;;;5019914;28;20136;-73
2022/07/28 07:05:17;;;;;;;3.30;1.60;;;20.40;53.60;;;;;;5017701;28;20061;-73
2022/07/28 07:07:44;;;;;;;2.80;1.52;;;20.40;53.60;;;;;;5017005;28;20049;-71
2022/07/28 07:10:12;;;;;;;4.43;2.00;;;19.90;56.80;;;;;;5016759;28;20053;-72
2022/07/28 07:12:39;;;;;;;6.22;1.92;;;20.40;53.90;;;;;;5016968;28;20053;-71
2022/07/28 07:15:07;;;;;;;5.30;1.60;;;20.60;54.30;;;;;;5016095;28;20055;-72
2022/07/28 07:17:36;;;;;;;2.22;1.42;;;20.40;54.30;;;;;;5034499;28;20049;-71
2022/07/28 07:20:02;;;;;;;2.40;1.45;;;20.40;54.30;;;;;;5016560;28;20053;-72
2022/07/28 07:22:29;;;;;;;3.67;1.40;;;20.40;54.30;;;;;;5016709;28;20470;-72
2022/07/28 07:24:56;;;;;;;2.20;1.40;;;20.40;54.30;;;;;;5016688;28;20140;-72
2022/07/28 07:27:24;;;;;;;4.13;1.50;;;20.40;54.30;;;;;;5016400;28;20546;-73
2022/07/28 07:29:51;;;;;;;2.90;1.52;;;20.40;54.20;;;;;;5016726;28;20053;-72
2022/07/28 07:32:18;;;;;;;4.13;1.70;;;20.50;59.70;;;;;;5016516;28;20057;-72
2022/07/28 07:34:44;;;;;;;4.22;1.50;;;20.50;54.20;;;;;;5016196;28;20061;-72
2022/07/28 07:37:13;;;;;;;5.85;1.60;;;20.50;54.00;;;;;;5016345;28;20132;-72
2022/07/28 07:39:40;;;;;;;5.60;2.03;;;20.60;54.10;;;;;;5015593;28;20057;-71
2022/07/28 07:42:07;;;;;;;6.25;1.63;;;20.70;54.10;;;;;;5016155;28;20136;-72
2022/07/28 07:44:36;;;;;;;4.20;1.90;;;20.70;54.10;;;;;;5016334;28;20057;-71
2022/07/28 07:47:02;;;;;;;5.55;1.88;;;20.70;54.00;;;;;;5016139;28;20056;-71
2022/07/28 07:49:29;;;;;;;4.63;1.50;;;20.80;54.00;;;;;;5016289;28;20184;-72
2022/07/28 07:51:56;;;;;;;3.97;1.40;;;21.80;59.90;;;;;;5015857;28;20053;-73
2022/07/28 07:54:23;;;;;;;4.22;1.35;;;21.00;53.90;;;;;;5033145;28;20120;-71
2022/07/28 07:56:49;;;;;;;3.83;1.35;;;21.10;53.80;;;;;;5015006;28;20049;-71
2022/07/28 07:59:16;;;;;;;3.30;1.27;;;21.60;58.70;;;;;;5015855;28;20548;-71
2022/07/28 08:01:44;;;;;;;6.35;1.33;;;21.20;53.50;;;;;;5015730;28;20140;-71
2022/07/28 08:04:11;;;;;;;2.38;1.50;;;21.30;53.40;;;;;;5015776;28;20132;-71
2022/07/28 08:06:38;;;;;;;3.65;1.58;;;21.30;53.20;;;;;;5015431;28;20103;-72
2022/07/28 08:09:05;;;;;;;2.25;1.40;;;21.30;53.10;;;;;;5016038;28;20088;-71
2022/07/28 08:11:31;;;;;;;3.25;1.50;;;21.30;53.00;;;;;;5034342;28;20054;-71
2022/07/28 08:13:58;;;;;;;2.80;1.25;;;21.40;53.00;;;;;;5016602;28;20132;-72
2022/07/28 08:16:25;;;;;;;2.33;1.20;;;21.40;52.90;;;;;;5015694;28;20681;-72
2022/07/28 08:18:57;;;;;;;1.98;1.27;;;21.50;52.90;;;;;;5015685;28;20053;-72
2022/07/28 08:21:23;;;;;;;5.20;1.58;;;21.50;52.80;;;;;;5032923;28;20119;-72
2022/07/28 08:23:50;;;;;;;2.80;1.33;;;21.60;52.80;;;;;;5033267;28;20387;-72
2022/07/28 08:26:17;;;;;;;3.33;1.20;;;21.60;52.70;;;;;;5014800;28;20053;-72
2022/07/28 08:28:44;;;;;;;2.42;1.30;;;21.70;52.60;;;;;;5015506;28;20077;-72
2022/07/28 08:31:10;;;;;;;1.95;1.10;;;21.80;52.60;;;;;;5032399;28;20461;-72
2022/07/28 08:33:37;;;;;;;3.45;1.38;;;22.20;57.80;;;;;;5030948;28;20132;-72
2022/07/28 08:36:05;;;;;;;3.17;1.20;;;21.80;52.30;;;;;;5017565;28;20067;-72
2022/07/28 08:38:32;;;;;;;2.05;1.10;;;21.90;52.20;;;;;;5015174;28;20136;-72
2022/07/28 08:40:59;;;;;;;3.05;1.10;;;21.90;52.20;;;;;;5014661;28;20489;-72
2022/07/28 08:43:32;;;;;;;4.05;1.35;;;22.00;52.20;;;;;;5014846;28;20061;-72
2022/07/28 08:46:00;;;;;;;2.53;1.20;;;22.70;56.90;;;;;;5015343;28;20132;-72
2022/07/28 08:48:28;;;;;;;2.05;1.13;;;21.90;52.00;;;;;;5014426;28;20053;-73
2022/07/28 08:50:56;;;;;;;2.40;1.10;;;21.90;51.90;;;;;;5015044;28;20080;-72
2022/07/28 08:53:24;;;;;;;2.67;1.20;;;21.90;51.90;;;;;;5032488;28;20045;-72
2022/07/28 08:55:51;;;;;;;5.13;1.15;;;21.80;51.90;;;;;;5015154;28;20054;-72
2022/07/28 08:58:17;;;;;;;1.88;1.20;;;21.90;51.90;;;;;;5014728;28;20478;-72
2022/07/28 09:00:44;;;;;;;3.03;1.30;;;21.80;51.90;;;;;;5014896;28;20484;-72
2022/07/28 09:03:11;;;;;;;3.30;1.10;;;21.80;52.00;;;;;;5012928;28;20061;-72
2022/07/28 09:05:39;;;;;;;2.60;1.20;;;21.90;52.10;;;;;;5014769;28;20057;-72
2022/07/28 09:08:06;;;;;;;2.28;1.25;;;22.20;57.30;;;;;;5014945;28;20053;-72
2022/07/28 09:10:34;;;;;;;2.75;1.10;;;21.70;52.20;;;;;;5014266;28;20867;-72
2022/07/28 09:13:01;;;;;;;4.10;1.25;;;21.70;52.30;;;;;;5014630;28;20054;-72
2022/07/28 09:15:28;;;;;;;3.55;1.48;;;21.70;52.30;;;;;;5014715;28;20465;-72
2022/07/28 09:17:55;;;;;;;7.57;1.55;;;21.70;57.50;;;;;;5014437;28;20049;-73
2022/07/28 09:20:24;;;;;;;2.70;1.20;;;22.00;55.50;;;;;;5032019;28;20077;-75
2022/07/28 09:22:56;;;;;;;2.95;1.10;;;21.60;52.50;;;;;;5013999;28;20049;-73
2022/07/28 09:25:23;;;;;;;2.78;1.40;;;21.60;52.50;;;;;;5014687;28;20053;-72
2022/07/28 09:27:51;;;;;;;2.08;1.05;;;21.60;53.20;;;;;;5014725;28;20128;-72
2022/07/28 09:30:28;;;;;;;3.17;1.20;;;21.40;55.70;;;;;;5014085;28;20080;-74
2022/07/28 09:33:14;;;;;;;3.58;1.10;;;21.60;57.50;;;;;;5013268;28;20060;-73
2022/07/28 09:35:46;;;;;;;2.80;1.20;;;21.60;58.10;;;;;;5013252;28;20056;-74
2022/07/28 09:38:13;;;;;;;4.03;1.58;;;21.40;56.90;;;;;;4134716;28;10001002;-73
2022/07/28 09:40:40;;;;;;;1.80;1.02;;;21.50;52.80;;;;;;5030696;28;20048;-73
2022/07/28 09:43:09;;;;;;;2.42;1.02;;;21.60;56.80;;;;;;5013086;28;20057;-73
2022/07/28 09:45:35;;;;;;;3.67;1.23;;;21.50;52.80;;;;;;4999767;28;20057;-73
2022/07/28 09:48:10;;;;;;;2.00;1.48;;;21.50;52.80;;;;;;5010698;28;20042;-73
2022/07/28 09:50:37;;;;;;;1.38;1.10;;;21.50;52.90;;;;;;5012739;28;20050;-73
2022/07/28 09:53:20;;;;;;;2.70;1.33;;;21.50;53.00;;;;;;5012657;28;20057;-74
2022/07/28 09:55:54;;;;;;;2.03;1.10;;;21.60;53.00;;;;;;5011940;28;20382;-72
2022/07/28 09:58:22;;;;;;;2.25;1.10;;;21.50;53.00;;;;;;5010886;28;20049;-73
2022/07/28 10:00:49;;;;;;;2.25;1.10;;;21.50;53.00;;;;;;5011994;28;20128;-73
2022/07/28 10:03:24;;;;;;;2.53;1.10;;;21.50;53.10;;;;;;5012414;28;20055;-74
2022/07/28 10:05:51;;;;;;;3.33;1.25;;;21.50;53.10;;;;;;4997101;28;20060;-73
2022/07/28 10:08:18;;;;;;;2.90;1.20;;;21.50;53.10;;;;;;5013194;28;20049;-73
2022/07/28 10:10:58;;;;;;;3.15;1.20;;;21.50;53.10;;;;;;5031034;28;20103;-73
2022/07/28 10:13:27;;;;;;;2.47;1.20;;;21.50;53.00;;;;;;5012687;28;20446;-73
2022/07/28 10:16:10;;;;;;;4.40;1.20;;;21.40;56.30;;;;;;5013700;28;20405;-73
2022/07/28 10:18:37;;;;;;;2.13;1.15;;;21.40;52.90;;;;;;5011831;28;20107;-73
2022/07/28 10:21:06;;;;;;;1.67;1.00;;;21.40;57.40;;;;;;5012421;28;20062;-73
2022/07/28 10:23:32;;;;;;;2.22;1.10;;;21.30;58.00;;;;;;5012767;28;20054;-73
2022/07/28 10:25:59;;;;;;;2.20;1.10;;;21.30;52.80;;;;;;5029472;28;20383;-75
2022/07/28 10:28:27;;;;;;;2.03;1.17;;;21.40;52.80;;;;;;5012784;28;20421;-72
2022/07/28 10:30:55;;;;;;;3.35;1.30;;;21.40;52.90;;;;;;5030518;28;20472;-73
2022/07/28 10:33:22;;;;;;;5.55;1.20;;;21.40;52.90;;;;;;5013595;28;20049;-72
2022/07/28 10:35:49;;;;;;;3.97;1.58;;;21.40;52.90;;;;;;5013741;28;20057;-72
2022/07/28 10:38:16;;;;;;;3.25;0.98;;;21.40;52.80;;;;;;5014255;28;20057;-72
2022/07/28 10:40:45;;;;;;;4.57;1.10;;;21.30;57.00;;;;;;5013168;28;20145;-72
2022/07/28 10:43:12;;;;;;;3.08;1.00;;;21.40;52.80;;;;;;5013700;28;20132;-72
2022/07/28 10:45:40;;;;;;;3.67;1.20;;;21.40;52.80;;;;;;5013811;28;20106;-72
2022/07/28 10:48:07;;;;;;;2.63;1.10;;;21.20;57.10;;;;;;5013939;28;20394;-72
2022/07/28 10:50:34;;;;;;;2.60;1.05;;;21.40;52.70;;;;;;5017275;28;20132;-72
2022/07/28 10:53:01;;;;;;;2.05;1.13;;;21.40;52.70;;;;;;5016889;28;20496;-72
2022/07/28 10:55:34;;;;;;;2.33;1.30;;;21.50;52.80;;;;;;5034652;28;20049;-72
2022/07/28 10:58:06;;;;;;;1.25;1.00;;;22.00;57.30;;;;;;5014361;28;20053;-72
2022/07/28 11:00:33;;;;;;;1.42;0.98;;;21.50;52.80;;;;;;5015267;28;20061;-73
2022/07/28 11:03:02;;;;;;;3.38;1.17;;;21.50;52.70;;;;;;5015415;28;20572;-73
2022/07/28 11:05:42;;;;;;;2.03;1.02;;;21.50;57.20;;;;;;5015860;28;20141;-72
2022/07/28 11:08:10;;;;;;;1.92;1.00;;;21.50;52.70;;;;;;5017070;28;20075;-72
2022/07/28 11:10:47;;;;;;;2.17;1.08;;;21.50;52.70;;;;;;5017550;28;20084;-72
2022/07/28 11:13:25;;;;;;;3.00;1.00;;;21.50;56.90;;;;;;5015902;28;20077;-72
2022/07/28 11:15:58;;;;;;;2.13;1.00;;;22.00;57.00;;;;;;5017124;28;20132;-73
2022/07/28 11:18:26;;;;;;;1.23;1.00;;;21.60;57.60;;;;;;5017408;28;20054;-72
2022/07/28 11:21:09;;;;;;;3.72;1.00;;;21.50;52.50;;;;;;5035164;28;20561;-72
2022/07/28 11:23:45;;;;;;;4.43;0.88;;;21.60;52.50;;;;;;5035022;28;20414;-72
2022/07/28 11:26:37;;;;;;;3.45;1.20;;;21.60;52.50;;;;;;5016649;28;20132;-72
2022/07/28 11:29:19;;;;;;;2.55;0.93;;;21.60;52.50;;;;;;5029861;28;20041;-72
2022/07/28 11:32:10;;;;;;;2.20;1.10;;;21.60;52.50;;;;;;5016396;28;20049;-72
2022/07/28 11:35:09;;;;;;;2.65;1.00;;;22.60;57.70;;;;;;5017560;28;20092;-72
2022/07/28 11:38:07;;;;;;;1.58;0.98;;;21.70;52.60;;;;;;5033299;28;20061;-71
2022/07/28 11:40:35;;;;;;;3.00;1.17;;;21.70;52.60;;;;;;4971773;28;20072;-72
2022/07/28 11:43:33;;;;;;;2.08;0.90;;;21.60;52.20;;;;;;5016082;28;20115;-72
2022/07/28 11:46:31;;;;;;;2.03;1.10;;;21.70;52.10;;;;;;5015989;28;20054;-72
2022/07/28 11:49:31;;;;;;;2.33;1.10;;;21.60;52.00;;;;;;5016283;28;20557;-72
2022/07/28 11:52:19;;;;;;;2.38;1.10;;;21.60;52.10;;;;;;5033949;28;20064;-71
2022/07/28 11:54:51;;;;;;;2.35;1.10;;;21.60;52.20;;;;;;5015966;28;20057;-72
2022/07/28 11:57:19;;;;;;;4.88;1.40;;;21.60;52.30;;;;;;5015447;28;20424;-71
2022/07/28 11:59:47;;;;;;;1.95;0.98;;;21.60;52.30;;;;;;5033138;28;20126;-71
2022/07/28 12:02:22;;;;;;;3.42;1.20;;;21.70;52.30;;;;;;5015760;28;20128;-72
2022/07/28 12:05:04;;;;;;;2.58;1.17;;;22.50;57.10;;;;;;5015867;28;20387;-72
2022/07/28 12:07:37;;;;;;;4.22;1.10;;;21.70;52.30;;;;;;5015774;28;20061;-72
2022/07/28 12:10:24;;;;;;;2.28;1.05;;;21.70;52.40;;;;;;5033942;28;20129;-71
2022/07/28 12:12:51;;;;;;;4.35;1.20;;;21.70;52.30;;;;;;5014374;28;20045;-74
2022/07/28 12:15:18;;;;;;;1.92;1.10;;;21.70;56.20;;;;;;5013175;28;20085;-71
2022/07/28 12:17:45;;;;;;;5.32;1.10;;;21.70;52.30;;;;;;5015513;28;20050;-70
2022/07/28 12:20:13;;;;;;;3.38;1.23;;;21.30;54.80;;;;;;5015015;28;20471;-71
2022/07/28 12:22:41;;;;;;;3.13;1.10;;;21.70;52.30;;;;;;5015730;28;20545;-71
2022/07/28 12:25:08;;;;;;;4.55;1.30;;;21.70;52.30;;;;;;5032977;28;20061;-71
2022/07/28 12:27:35;;;;;;;4.13;1.20;;;21.70;52.30;;;;;;5032655;28;20152;-71
2022/07/28 12:30:02;;;;;;;3.03;1.40;;;21.70;52.30;;;;;;5015633;28;20108;-71
2022/07/28 12:32:33;;;;;;;4.15;1.30;;;22.60;58.20;;;;;;5032651;28;20050;-71
2022/07/28 12:35:00;;;;;;;2.38;1.15;;;21.60;56.90;;;;;;5015152;28;20055;-71
2022/07/28 12:37:27;;;;;;;2.22;1.00;;;21.70;52.40;;;;;;5015045;28;20049;-70
2022/07/28 12:39:56;;;;;;;4.18;1.50;;;21.70;52.40;;;;;;5033219;28;20056;-72
2022/07/28 12:42:23;;;;;;;3.42;1.42;;;21.90;52.50;;;;;;5032817;28;20050;-71
2022/07/28 12:44:53;;;;;;;1.92;1.00;;;21.80;52.40;;;;;;5014646;28;20481;-71
2022/07/28 12:47:25;;;;;;;2.72;1.10;;;21.80;52.30;;;;;;5014612;28;20172;-71
2022/07/28 12:50:07;;;;;;;2.38;0.93;;;21.80;52.30;;;;;;5032067;28;20128;-71
2022/07/28 12:52:35;;;;;;;3.78;1.20;;;21.80;52.30;;;;;;5010381;28;20053;-71
2022/07/28 12:55:03;;;;;;;2.38;1.10;;;21.80;52.30;;;;;;5014705;28;20434;-71
2022/07/28 12:57:39;;;;;;;1.00;0.90;;;21.90;52.30;;;;;;5013251;28;20057;-71
2022/07/28 13:00:07;;;;;;;4.18;1.77;;;21.80;57.00;;;;;;5015141;28;20136;-71